sensor_id;sensor_type;location;lat;lon;timestamp;pressure;altitude;pressure_sealevel;temperature;humidity
15382;BME280;7789;51.364;12.358;2023-07-13T00:00:00;99979.28;;;23.76;46.00
15382;BME280;7789;51.364;12.358;2023-07-13T00:05:08;99993.31;;;23.72;45.88
15382;BME280;7789;51.364;12.358;2023-07-13T00:10:16;100006.53;;;23.60;46.78
15382;BME280;7789;51.364;12.358;2023-07-13T00:15:27;100018.25;;;23.59;45.92
15382;BME280;7789;51.364;12.358;2023-07-13T00:20:37;100022.56;;;23.60;46.51
15382;BME280;7789;51.364;12.358;2023-07-13T00:25:52;100030.78;;;23.59;46.24
15382;BME280;7789;51.364;12.358;2023-07-13T00:31:12;100043.53;;;23.57;46.42
15382;BME280;7789;51.364;12.358;2023-07-13T00:36:20;100044.78;;;23.54;47.46
15382;BME280;7789;51.364;12.358;2023-07-13T00:41:29;100054.44;;;23.49;49.64
15382;BME280;7789;51.364;12.358;2023-07-13T00:46:40;100055.72;;;23.46;49.84
15382;BME280;7789;51.364;12.358;2023-07-13T00:51:49;100076.69;;;23.43;50.76
15382;BME280;7789;51.364;12.358;2023-07-13T00:57:01;100067.03;;;23.42;50.38
15382;BME280;7789;51.364;12.358;2023-07-13T01:02:10;100066.03;;;23.36;50.26
15382;BME280;7789;51.364;12.358;2023-07-13T01:07:19;100072.66;;;23.34;49.76
15382;BME280;7789;51.364;12.358;2023-07-13T01:12:29;100057.28;;;23.29;49.04
15382;BME280;7789;51.364;12.358;2023-07-13T01:17:35;100068.41;;;23.20;48.74
15382;BME280;7789;51.364;12.358;2023-07-13T01:22:42;100074.38;;;23.15;48.78
15382;BME280;7789;51.364;12.358;2023-07-13T01:27:48;100055.31;;;23.05;48.83
15382;BME280;7789;51.364;12.358;2023-07-13T01:32:59;100054.97;;;22.95;49.17
15382;BME280;7789;51.364;12.358;2023-07-13T01:38:10;100065.47;;;22.90;49.36
15382;BME280;7789;51.364;12.358;2023-07-13T01:43:18;100056.25;;;22.80;49.41
15382;BME280;7789;51.364;12.358;2023-07-13T01:48:28;100062.66;;;22.73;49.84
15382;BME280;7789;51.364;12.358;2023-07-13T01:53:34;100065.72;;;22.69;50.00
15382;BME280;7789;51.364;12.358;2023-07-13T01:58:40;100066.13;;;22.67;50.04
15382;BME280;7789;51.364;12.358;2023-07-13T02:03:47;100059.81;;;22.61;50.20
15382;BME280;7789;51.364;12.358;2023-07-13T02:09:06;100063.31;;;22.55;50.90
15382;BME280;7789;51.364;12.358;2023-07-13T02:14:19;100064.34;;;22.48;50.81
15382;BME280;7789;51.364;12.358;2023-07-13T02:19:39;100066.00;;;22.42;50.92
15382;BME280;7789;51.364;12.358;2023-07-13T02:24:57;100081.16;;;22.35;51.57
15382;BME280;7789;51.364;12.358;2023-07-13T02:30:08;100083.22;;;22.27;51.85
15382;BME280;7789;51.364;12.358;2023-07-13T02:35:18;100079.53;;;22.21;51.97
15382;BME280;7789;51.364;12.358;2023-07-13T02:40:30;100080.38;;;22.09;52.61
15382;BME280;7789;51.364;12.358;2023-07-13T02:45:37;100076.50;;;21.98;52.70
15382;BME280;7789;51.364;12.358;2023-07-13T02:50:49;100079.56;;;21.82;53.21
15382;BME280;7789;51.364;12.358;2023-07-13T02:55:57;100086.88;;;21.61;54.29
15382;BME280;7789;51.364;12.358;2023-07-13T03:01:10;100067.00;;;21.37;54.96
15382;BME280;7789;51.364;12.358;2023-07-13T03:06:17;100073.50;;;21.22;55.67
15382;BME280;7789;51.364;12.358;2023-07-13T03:11:52;100078.56;;;21.10;56.44
15382;BME280;7789;51.364;12.358;2023-07-13T03:16:56;100082.22;;;20.96;56.68
15382;BME280;7789;51.364;12.358;2023-07-13T03:22:05;100086.47;;;20.84;57.23
15382;BME280;7789;51.364;12.358;2023-07-13T03:27:15;100101.28;;;20.72;57.81
15382;BME280;7789;51.364;12.358;2023-07-13T03:32:22;100104.50;;;20.68;58.07
15382;BME280;7789;51.364;12.358;2023-07-13T03:37:29;100105.53;;;20.61;58.69
15382;BME280;7789;51.364;12.358;2023-07-13T03:42:39;100112.19;;;20.50;59.66
15382;BME280;7789;51.364;12.358;2023-07-13T03:47:46;100124.38;;;20.38;59.88
15382;BME280;7789;51.364;12.358;2023-07-13T03:53:08;100117.44;;;20.37;60.72
15382;BME280;7789;51.364;12.358;2023-07-13T03:58:48;100126.78;;;20.33;61.78
15382;BME280;7789;51.364;12.358;2023-07-13T04:03:56;100133.75;;;20.34;61.67
15382;BME280;7789;51.364;12.358;2023-07-13T04:09:06;100133.75;;;20.34;61.78
15382;BME280;7789;51.364;12.358;2023-07-13T04:14:16;100140.31;;;20.38;62.20
15382;BME280;7789;51.364;12.358;2023-07-13T04:19:20;100143.03;;;20.45;62.36
15382;BME280;7789;51.364;12.358;2023-07-13T04:24:46;100139.41;;;20.52;63.07
15382;BME280;7789;51.364;12.358;2023-07-13T04:30:02;100141.31;;;20.65;62.94
15382;BME280;7789;51.364;12.358;2023-07-13T04:35:24;100135.44;;;20.75;63.35
15382;BME280;7789;51.364;12.358;2023-07-13T04:40:30;100136.56;;;20.87;63.00
15382;BME280;7789;51.364;12.358;2023-07-13T04:45:51;100138.88;;;21.03;62.94
15382;BME280;7789;51.364;12.358;2023-07-13T04:50:58;100132.22;;;21.20;62.98
15382;BME280;7789;51.364;12.358;2023-07-13T04:56:04;100127.38;;;21.50;62.38
15382;BME280;7789;51.364;12.358;2023-07-13T05:01:17;100133.25;;;24.86;54.13
15382;BME280;7789;51.364;12.358;2023-07-13T05:06:42;100129.28;;;27.33;48.80
15382;BME280;7789;51.364;12.358;2023-07-13T05:11:57;100134.56;;;29.47;43.42
15382;BME280;7789;51.364;12.358;2023-07-13T05:17:18;100135.13;;;31.31;40.23
15382;BME280;7789;51.364;12.358;2023-07-13T05:22:27;100136.56;;;32.93;36.90
15382;BME280;7789;51.364;12.358;2023-07-13T05:27:41;100135.91;;;34.46;35.12
15382;BME280;7789;51.364;12.358;2023-07-13T05:32:54;100142.88;;;35.88;31.55
15382;BME280;7789;51.364;12.358;2023-07-13T05:38:02;100154.59;;;37.11;30.16
15382;BME280;7789;51.364;12.358;2023-07-13T05:43:09;100156.91;;;38.15;29.59
15382;BME280;7789;51.364;12.358;2023-07-13T05:48:34;100155.31;;;39.14;27.44
15382;BME280;7789;51.364;12.358;2023-07-13T05:53:39;100159.81;;;39.91;27.31
15382;BME280;7789;51.364;12.358;2023-07-13T05:58:44;100168.78;;;41.06;25.59
15382;BME280;7789;51.364;12.358;2023-07-13T06:03:57;100157.63;;;40.65;25.29
15382;BME280;7789;51.364;12.358;2023-07-13T06:09:02;100149.75;;;39.28;26.46
15382;BME280;7789;51.364;12.358;2023-07-13T06:14:12;100174.50;;;39.78;25.99
15382;BME280;7789;51.364;12.358;2023-07-13T06:19:34;100174.63;;;41.33;24.82
15382;BME280;7789;51.364;12.358;2023-07-13T06:24:40;100175.97;;;40.90;25.24
15382;BME280;7789;51.364;12.358;2023-07-13T06:29:47;100187.53;;;42.23;23.90
15382;BME280;7789;51.364;12.358;2023-07-13T06:34:57;100186.97;;;42.62;22.36
15382;BME280;7789;51.364;12.358;2023-07-13T06:40:10;100176.66;;;41.45;24.37
15382;BME280;7789;51.364;12.358;2023-07-13T06:45:40;100169.94;;;39.57;25.89
15382;BME280;7789;51.364;12.358;2023-07-13T06:51:01;100175.41;;;38.71;26.16
15382;BME280;7789;51.364;12.358;2023-07-13T06:56:08;100180.19;;;37.91;26.96
15382;BME280;7789;51.364;12.358;2023-07-13T07:01:25;100180.47;;;37.14;28.44
15382;BME280;7789;51.364;12.358;2023-07-13T07:06:38;100196.72;;;37.32;27.11
15382;BME280;7789;51.364;12.358;2023-07-13T07:12:04;100196.00;;;36.22;28.80
15382;BME280;7789;51.364;12.358;2023-07-13T07:17:22;100189.53;;;35.81;28.19
15382;BME280;7789;51.364;12.358;2023-07-13T07:22:29;100221.81;;;36.43;27.61
15382;BME280;7789;51.364;12.358;2023-07-13T07:28:09;100200.75;;;35.56;28.97
15382;BME280;7789;51.364;12.358;2023-07-13T07:33:42;100195.25;;;34.68;30.49
15382;BME280;7789;51.364;12.358;2023-07-13T07:38:51;100195.53;;;34.33;29.79
15382;BME280;7789;51.364;12.358;2023-07-13T07:43:58;100210.63;;;33.57;31.01
15382;BME280;7789;51.364;12.358;2023-07-13T07:49:10;100207.03;;;32.93;30.97
15382;BME280;7789;51.364;12.358;2023-07-13T07:54:35;100207.91;;;32.74;31.73
15382;BME280;7789;51.364;12.358;2023-07-13T07:59:47;100213.28;;;32.64;31.49
15382;BME280;7789;51.364;12.358;2023-07-13T08:04:59;100211.13;;;32.61;30.58
15382;BME280;7789;51.364;12.358;2023-07-13T08:10:37;100215.88;;;33.97;29.44
15382;BME280;7789;51.364;12.358;2023-07-13T08:16:09;100204.19;;;35.20;26.68
15382;BME280;7789;51.364;12.358;2023-07-13T08:21:16;100211.09;;;34.17;28.82
15382;BME280;7789;51.364;12.358;2023-07-13T08:26:32;100215.66;;;33.30;30.13
15382;BME280;7789;51.364;12.358;2023-07-13T08:31:39;100212.69;;;33.11;29.46
15382;BME280;7789;51.364;12.358;2023-07-13T08:36:50;100216.56;;;32.86;30.53
15382;BME280;7789;51.364;12.358;2023-07-13T08:42:27;100216.28;;;32.62;30.13
15382;BME280;7789;51.364;12.358;2023-07-13T08:48:02;100212.50;;;32.48;30.70
15382;BME280;7789;51.364;12.358;2023-07-13T08:53:13;100212.78;;;32.22;30.35
15382;BME280;7789;51.364;12.358;2023-07-13T08:58:21;100209.25;;;32.21;30.34
15382;BME280;7789;51.364;12.358;2023-07-13T09:03:46;100207.59;;;32.95;29.95
15382;BME280;7789;51.364;12.358;2023-07-13T09:09:08;100205.69;;;32.11;29.73
15382;BME280;7789;51.364;12.358;2023-07-13T09:14:43;100202.63;;;31.72;31.54
15382;BME280;7789;51.364;12.358;2023-07-13T09:19:58;100203.56;;;31.36;32.23
15382;BME280;7789;51.364;12.358;2023-07-13T09:25:23;100211.25;;;31.08;32.52
15382;BME280;7789;51.364;12.358;2023-07-13T09:30:45;100201.81;;;31.10;33.36
15382;BME280;7789;51.364;12.358;2023-07-13T09:35:54;100200.22;;;31.14;33.00
15382;BME280;7789;51.364;12.358;2023-07-13T09:41:20;100196.75;;;31.24;33.00
15382;BME280;7789;51.364;12.358;2023-07-13T09:46:39;100202.16;;;31.24;32.08
15382;BME280;7789;51.364;12.358;2023-07-13T09:51:58;100214.06;;;31.28;32.63
15382;BME280;7789;51.364;12.358;2023-07-13T09:57:12;100211.72;;;31.41;33.25
15382;BME280;7789;51.364;12.358;2023-07-13T10:02:28;100216.22;;;31.26;31.68
15382;BME280;7789;51.364;12.358;2023-07-13T10:07:47;100209.97;;;31.20;32.23
15382;BME280;7789;51.364;12.358;2023-07-13T10:13:00;100216.53;;;30.88;32.59
15382;BME280;7789;51.364;12.358;2023-07-13T10:18:14;100223.72;;;30.73;33.24
15382;BME280;7789;51.364;12.358;2023-07-13T10:23:21;100222.25;;;30.29;33.89
15382;BME280;7789;51.364;12.358;2023-07-13T10:28:36;100224.00;;;30.40;34.77
15382;BME280;7789;51.364;12.358;2023-07-13T10:33:51;100237.59;;;30.23;34.93
15382;BME280;7789;51.364;12.358;2023-07-13T10:39:06;100237.50;;;30.13;34.06
15382;BME280;7789;51.364;12.358;2023-07-13T10:44:21;100229.03;;;30.31;34.87
15382;BME280;7789;51.364;12.358;2023-07-13T10:49:46;100233.09;;;30.34;35.17
15382;BME280;7789;51.364;12.358;2023-07-13T10:54:58;100236.19;;;30.21;33.98
15382;BME280;7789;51.364;12.358;2023-07-13T11:00:16;100228.00;;;30.06;33.53
15382;BME280;7789;51.364;12.358;2023-07-13T11:05:27;100229.34;;;30.08;34.27
15382;BME280;7789;51.364;12.358;2023-07-13T11:10:50;100228.94;;;30.21;34.03
15382;BME280;7789;51.364;12.358;2023-07-13T11:15:58;100229.47;;;30.18;32.51
15382;BME280;7789;51.364;12.358;2023-07-13T11:21:16;100230.03;;;29.99;32.33
15382;BME280;7789;51.364;12.358;2023-07-13T11:26:41;100219.72;;;29.91;32.57
15382;BME280;7789;51.364;12.358;2023-07-13T11:31:52;100213.16;;;29.87;32.04
15382;BME280;7789;51.364;12.358;2023-07-13T11:37:12;100215.75;;;29.98;32.24
15382;BME280;7789;51.364;12.358;2023-07-13T11:42:22;100196.22;;;30.13;32.01
15382;BME280;7789;51.364;12.358;2023-07-13T11:47:32;100195.09;;;30.40;32.37
15382;BME280;7789;51.364;12.358;2023-07-13T11:52:44;100195.84;;;30.36;32.48
15382;BME280;7789;51.364;12.358;2023-07-13T11:57:57;100202.13;;;30.10;31.79
15382;BME280;7789;51.364;12.358;2023-07-13T12:03:30;100200.09;;;30.22;31.78
15382;BME280;7789;51.364;12.358;2023-07-13T12:08:40;100203.78;;;30.16;30.02
15382;BME280;7789;51.364;12.358;2023-07-13T12:13:50;100200.53;;;30.14;31.08
15382;BME280;7789;51.364;12.358;2023-07-13T12:18:56;100196.41;;;30.06;30.85
15382;BME280;7789;51.364;12.358;2023-07-13T12:24:14;100194.66;;;29.95;30.49
15382;BME280;7789;51.364;12.358;2023-07-13T12:29:23;100205.22;;;29.75;30.34
15382;BME280;7789;51.364;12.358;2023-07-13T12:34:29;100211.78;;;29.79;31.20
15382;BME280;7789;51.364;12.358;2023-07-13T12:39:44;100196.44;;;29.85;30.59
15382;BME280;7789;51.364;12.358;2023-07-13T12:44:57;100196.75;;;29.88;31.17
15382;BME280;7789;51.364;12.358;2023-07-13T12:50:14;100202.38;;;29.87;30.91
15382;BME280;7789;51.364;12.358;2023-07-13T12:55:22;100195.53;;;29.74;30.90
15382;BME280;7789;51.364;12.358;2023-07-13T13:00:48;100216.22;;;29.69;30.96
15382;BME280;7789;51.364;12.358;2023-07-13T13:06:21;100213.28;;;29.49;31.73
15382;BME280;7789;51.364;12.358;2023-07-13T13:11:44;100208.38;;;29.46;31.04
15382;BME280;7789;51.364;12.358;2023-07-13T13:16:57;100213.56;;;29.31;31.36
15382;BME280;7789;51.364;12.358;2023-07-13T13:22:10;100213.06;;;29.34;30.38
15382;BME280;7789;51.364;12.358;2023-07-13T13:27:23;100212.69;;;29.25;30.49
15382;BME280;7789;51.364;12.358;2023-07-13T13:32:30;100218.59;;;29.22;31.09
15382;BME280;7789;51.364;12.358;2023-07-13T13:43:13;100225.56;;;29.02;31.66
15382;BME280;7789;51.364;12.358;2023-07-13T13:48:31;100234.72;;;29.01;32.11
15382;BME280;7789;51.364;12.358;2023-07-13T13:53:56;100236.00;;;29.15;32.75
15382;BME280;7789;51.364;12.358;2023-07-13T13:59:13;100228.03;;;29.03;32.22
15382;BME280;7789;51.364;12.358;2023-07-13T14:04:31;100224.25;;;29.04;32.07
15382;BME280;7789;51.364;12.358;2023-07-13T14:09:40;100237.66;;;28.99;33.04
15382;BME280;7789;51.364;12.358;2023-07-13T14:14:51;100228.47;;;28.95;31.59
15382;BME280;7789;51.364;12.358;2023-07-13T14:20:02;100234.03;;;28.89;33.18
15382;BME280;7789;51.364;12.358;2023-07-13T14:25:13;100225.81;;;28.84;32.58
15382;BME280;7789;51.364;12.358;2023-07-13T14:30:26;100229.19;;;28.91;32.89
15382;BME280;7789;51.364;12.358;2023-07-13T14:35:42;100215.47;;;28.92;31.95
15382;BME280;7789;51.364;12.358;2023-07-13T14:40:54;100231.69;;;28.81;32.14
15382;BME280;7789;51.364;12.358;2023-07-13T14:46:18;100218.22;;;28.81;31.89
15382;BME280;7789;51.364;12.358;2023-07-13T14:51:29;100222.44;;;28.72;31.82
15382;BME280;7789;51.364;12.358;2023-07-13T14:56:47;100230.66;;;28.66;32.80
15382;BME280;7789;51.364;12.358;2023-07-13T15:02:01;100222.50;;;28.77;32.74
15382;BME280;7789;51.364;12.358;2023-07-13T15:07:22;100215.97;;;28.73;32.26
15382;BME280;7789;51.364;12.358;2023-07-13T15:12:40;100226.66;;;28.68;32.26
15382;BME280;7789;51.364;12.358;2023-07-13T15:18:18;100226.91;;;28.67;31.72
15382;BME280;7789;51.364;12.358;2023-07-13T15:23:24;100214.66;;;28.75;32.49
15382;BME280;7789;51.364;12.358;2023-07-13T15:28:41;100231.47;;;28.82;33.15
15382;BME280;7789;51.364;12.358;2023-07-13T15:34:22;100223.94;;;28.68;31.11
15382;BME280;7789;51.364;12.358;2023-07-13T15:40:10;100225.00;;;28.67;32.38
15382;BME280;7789;51.364;12.358;2023-07-13T15:45:21;100228.94;;;28.60;33.23
15382;BME280;7789;51.364;12.358;2023-07-13T15:51:01;100220.06;;;28.59;32.62
15382;BME280;7789;51.364;12.358;2023-07-13T15:56:18;100218.75;;;28.62;33.03
15382;BME280;7789;51.364;12.358;2023-07-13T16:01:24;100220.06;;;28.59;32.65
15382;BME280;7789;51.364;12.358;2023-07-13T16:06:55;100230.19;;;28.52;33.00
15382;BME280;7789;51.364;12.358;2023-07-13T16:12:04;100226.66;;;28.52;32.86
15382;BME280;7789;51.364;12.358;2023-07-13T16:17:11;100235.81;;;28.51;32.80
15382;BME280;7789;51.364;12.358;2023-07-13T16:22:38;100241.41;;;28.49;33.78
15382;BME280;7789;51.364;12.358;2023-07-13T16:27:57;100237.84;;;28.44;32.81
15382;BME280;7789;51.364;12.358;2023-07-13T16:33:16;100237.50;;;28.40;34.04
15382;BME280;7789;51.364;12.358;2023-07-13T16:38:45;100234.56;;;28.42;34.72
15382;BME280;7789;51.364;12.358;2023-07-13T16:43:53;100247.25;;;28.30;34.44
15382;BME280;7789;51.364;12.358;2023-07-13T16:49:00;100241.03;;;28.13;34.05
15382;BME280;7789;51.364;12.358;2023-07-13T16:54:08;100249.47;;;28.05;34.51
15382;BME280;7789;51.364;12.358;2023-07-13T16:59:17;100245.78;;;27.94;34.55
15382;BME280;7789;51.364;12.358;2023-07-13T17:04:27;100251.56;;;27.86;34.59
15382;BME280;7789;51.364;12.358;2023-07-13T17:09:56;100255.69;;;27.77;34.44
15382;BME280;7789;51.364;12.358;2023-07-13T17:15:10;100261.16;;;27.71;35.28
15382;BME280;7789;51.364;12.358;2023-07-13T17:20:38;100254.84;;;27.65;36.02
15382;BME280;7789;51.364;12.358;2023-07-13T17:25:48;100264.38;;;27.56;34.95
15382;BME280;7789;51.364;12.358;2023-07-13T17:30:58;100263.44;;;27.51;35.85
15382;BME280;7789;51.364;12.358;2023-07-13T17:36:12;100262.28;;;27.47;35.60
15382;BME280;7789;51.364;12.358;2023-07-13T17:41:23;100270.25;;;27.42;36.26
15382;BME280;7789;51.364;12.358;2023-07-13T17:46:37;100274.81;;;27.30;36.21
15382;BME280;7789;51.364;12.358;2023-07-13T17:51:47;100275.75;;;27.12;36.87
15382;BME280;7789;51.364;12.358;2023-07-13T17:57:15;100273.16;;;27.06;37.39
15382;BME280;7789;51.364;12.358;2023-07-13T18:02:22;100284.72;;;26.95;36.97
15382;BME280;7789;51.364;12.358;2023-07-13T18:07:27;100278.63;;;26.88;37.28
15382;BME280;7789;51.364;12.358;2023-07-13T18:12:39;100291.13;;;26.82;37.46
15382;BME280;7789;51.364;12.358;2023-07-13T18:17:48;100298.34;;;26.71;37.70
15382;BME280;7789;51.364;12.358;2023-07-13T18:22:56;100301.47;;;26.56;38.08
15382;BME280;7789;51.364;12.358;2023-07-13T18:28:22;100300.47;;;26.39;38.20
15382;BME280;7789;51.364;12.358;2023-07-13T18:33:33;100314.75;;;26.22;38.37
15382;BME280;7789;51.364;12.358;2023-07-13T18:38:57;100319.22;;;26.10;38.50
15382;BME280;7789;51.364;12.358;2023-07-13T18:44:05;100324.06;;;26.01;38.60
15382;BME280;7789;51.364;12.358;2023-07-13T18:49:30;100354.59;;;25.82;39.51
15382;BME280;7789;51.364;12.358;2023-07-13T18:54:39;100360.06;;;25.33;42.04
15382;BME280;7789;51.364;12.358;2023-07-13T19:00:16;100388.50;;;24.79;43.77
15382;BME280;7789;51.364;12.358;2023-07-13T19:05:34;100389.13;;;24.37;45.13
15382;BME280;7789;51.364;12.358;2023-07-13T19:11:03;100406.56;;;23.96;46.35
15382;BME280;7789;51.364;12.358;2023-07-13T19:16:19;100400.66;;;23.68;48.05
15382;BME280;7789;51.364;12.358;2023-07-13T19:21:59;100417.91;;;23.39;48.90
15382;BME280;7789;51.364;12.358;2023-07-13T19:27:11;100422.03;;;23.22;49.91
15382;BME280;7789;51.364;12.358;2023-07-13T19:32:20;100431.84;;;23.09;51.15
15382;BME280;7789;51.364;12.358;2023-07-13T19:37:33;100451.53;;;22.95;51.82
15382;BME280;7789;51.364;12.358;2023-07-13T19:42:45;100453.34;;;22.81;52.28
15382;BME280;7789;51.364;12.358;2023-07-13T19:47:51;100468.53;;;22.74;52.91
15382;BME280;7789;51.364;12.358;2023-07-13T19:53:14;100486.94;;;22.63;53.37
15382;BME280;7789;51.364;12.358;2023-07-13T19:58:27;100484.81;;;22.46;53.35
15382;BME280;7789;51.364;12.358;2023-07-13T20:03:38;100498.03;;;22.33;53.53
15382;BME280;7789;51.364;12.358;2023-07-13T20:08:43;100502.94;;;22.23;53.90
15382;BME280;7789;51.364;12.358;2023-07-13T20:13:48;100501.44;;;22.14;53.49
15382;BME280;7789;51.364;12.358;2023-07-13T20:18:55;100501.97;;;22.03;53.85
15382;BME280;7789;51.364;12.358;2023-07-13T20:23:59;100512.78;;;21.95;54.08
15382;BME280;7789;51.364;12.358;2023-07-13T20:29:07;100516.25;;;21.89;54.41
15382;BME280;7789;51.364;12.358;2023-07-13T20:34:18;100524.34;;;21.81;55.04
15382;BME280;7789;51.364;12.358;2023-07-13T20:39:31;100526.97;;;21.74;55.23
15382;BME280;7789;51.364;12.358;2023-07-13T20:44:41;100531.03;;;21.70;55.66
15382;BME280;7789;51.364;12.358;2023-07-13T20:49:51;100524.94;;;21.55;56.01
15382;BME280;7789;51.364;12.358;2023-07-13T20:55:03;100535.91;;;21.46;56.10
15382;BME280;7789;51.364;12.358;2023-07-13T21:00:24;100532.09;;;21.34;56.65
15382;BME280;7789;51.364;12.358;2023-07-13T21:05:41;100542.63;;;21.21;57.07
15382;BME280;7789;51.364;12.358;2023-07-13T21:10:48;100550.06;;;21.11;57.48
15382;BME280;7789;51.364;12.358;2023-07-13T21:16:04;100546.53;;;21.04;57.98
15382;BME280;7789;51.364;12.358;2023-07-13T21:21:24;100553.59;;;20.97;58.76
15382;BME280;7789;51.364;12.358;2023-07-13T21:26:36;100556.56;;;20.87;58.39
15382;BME280;7789;51.364;12.358;2023-07-13T21:31:46;100559.31;;;20.79;58.97
15382;BME280;7789;51.364;12.358;2023-07-13T21:37:15;100554.72;;;20.73;59.41
15382;BME280;7789;51.364;12.358;2023-07-13T21:42:22;100554.44;;;20.68;59.44
15382;BME280;7789;51.364;12.358;2023-07-13T21:53:27;100564.91;;;20.56;61.03
15382;BME280;7789;51.364;12.358;2023-07-13T21:58:37;100578.31;;;20.48;60.77
15382;BME280;7789;51.364;12.358;2023-07-13T22:03:48;100567.22;;;20.44;60.79
15382;BME280;7789;51.364;12.358;2023-07-13T22:08:57;100569.41;;;20.41;60.98
15382;BME280;7789;51.364;12.358;2023-07-13T22:14:07;100579.75;;;20.36;61.26
15382;BME280;7789;51.364;12.358;2023-07-13T22:19:19;100575.72;;;20.25;62.23
15382;BME280;7789;51.364;12.358;2023-07-13T22:24:39;100581.56;;;20.21;62.98
15382;BME280;7789;51.364;12.358;2023-07-13T22:29:44;100585.13;;;20.13;63.61
15382;BME280;7789;51.364;12.358;2023-07-13T22:34:54;100578.06;;;20.06;63.86
15382;BME280;7789;51.364;12.358;2023-07-13T22:40:27;100580.09;;;20.04;64.92
15382;BME280;7789;51.364;12.358;2023-07-13T22:45:35;100588.91;;;19.96;64.76
15382;BME280;7789;51.364;12.358;2023-07-13T22:50:41;100592.94;;;19.92;65.23
15382;BME280;7789;51.364;12.358;2023-07-13T22:55:50;100593.66;;;19.86;65.68
15382;BME280;7789;51.364;12.358;2023-07-13T23:01:00;100589.25;;;19.79;65.75
15382;BME280;7789;51.364;12.358;2023-07-13T23:06:18;100591.59;;;19.74;66.50
15382;BME280;7789;51.364;12.358;2023-07-13T23:11:35;100606.88;;;19.72;66.62
15382;BME280;7789;51.364;12.358;2023-07-13T23:16:43;100610.09;;;19.67;67.11
15382;BME280;7789;51.364;12.358;2023-07-13T23:21:53;100604.47;;;19.62;67.37
15382;BME280;7789;51.364;12.358;2023-07-13T23:27:16;100606.81;;;19.57;68.17
15382;BME280;7789;51.364;12.358;2023-07-13T23:32:25;100610.19;;;19.51;68.25
15382;BME280;7789;51.364;12.358;2023-07-13T23:37:31;100596.44;;;19.48;68.51
15382;BME280;7789;51.364;12.358;2023-07-13T23:42:40;100596.81;;;19.45;68.97
15382;BME280;7789;51.364;12.358;2023-07-13T23:47:53;100602.00;;;19.38;69.46
15382;BME280;7789;51.364;12.358;2023-07-13T23:53:08;100600.50;;;19.36;69.71
15382;BME280;7789;51.364;12.358;2023-07-13T23:58:28;100606.31;;;19.31;70.20
